createdAt,value
2022-12-01T00:01:44.867Z,98739.19
2022-12-01T00:04:11.447Z,98731.44
2022-12-01T00:06:38.017Z,98738.50
2022-12-01T00:09:23.203Z,98742.31
2022-12-01T00:11:49.733Z,98737.03
2022-12-01T00:14:16.488Z,98737.53
2022-12-01T00:16:44.569Z,98733.09
2022-12-01T00:19:11.264Z,98735.94
2022-12-01T00:21:37.785Z,98732.31
2022-12-01T00:24:04.407Z,98732.78
2022-12-01T00:26:30.861Z,98733.31
2022-12-01T00:28:59.465Z,98736.59
2022-12-01T00:31:26.621Z,98735.63
2022-12-01T00:33:53.751Z,98734.31
2022-12-01T00:36:20.633Z,98731.03
2022-12-01T00:38:47.551Z,98735.81
2022-12-01T00:41:14.273Z,98733.50
2022-12-01T00:43:40.778Z,98748.50
2022-12-01T00:46:07.281Z,98738.94
2022-12-01T00:48:33.958Z,98743.88
2022-12-01T00:51:00.445Z,98746.03
2022-12-01T00:53:27.133Z,98746.53
2022-12-01T00:55:54.065Z,98741.09
2022-12-01T00:58:21.857Z,98746.03
2022-12-01T01:00:49.185Z,98742.22
2022-12-01T01:03:15.695Z,98744.38
2022-12-01T01:05:43.204Z,98744.19
2022-12-01T01:08:11.535Z,98743.53
2022-12-01T01:10:39.627Z,98749.47
2022-12-01T01:13:06.369Z,98747.16
2022-12-01T01:15:32.844Z,98746.94
2022-12-01T01:17:59.406Z,98740.81
2022-12-01T01:20:25.937Z,98740.19
2022-12-01T01:22:52.363Z,98740.34
2022-12-01T01:25:19.014Z,98742.66
2022-12-01T01:27:45.491Z,98743.47
2022-12-01T01:30:13.244Z,98746.94
2022-12-01T01:32:39.555Z,98746.78
2022-12-01T01:35:06.597Z,98751.78
2022-12-01T01:37:33.053Z,98743.53
2022-12-01T01:39:59.541Z,98747.59
2022-12-01T01:42:26.078Z,98741.50
2022-12-01T01:44:54.143Z,98747.59
2022-12-01T01:47:26.653Z,98749.13
2022-12-01T01:49:56.184Z,98755.91
2022-12-01T01:52:23.705Z,98756.22
2022-12-01T01:54:53.475Z,98760.03
2022-12-01T01:57:25.639Z,98758.03
2022-12-01T01:59:58.072Z,98753.78
2022-12-01T02:02:25.664Z,98757.22
2022-12-01T02:04:58.635Z,98750.66
2022-12-01T02:07:25.443Z,98755.75
2022-12-01T02:12:38.631Z,98755.56
2022-12-01T02:15:25.070Z,98761.53
2022-12-01T02:18:15.875Z,98745.50
2022-12-01T02:20:58.949Z,98747.09
2022-12-01T02:23:43.317Z,98746.44
2022-12-01T02:26:28.457Z,98748.09
2022-12-01T02:29:22.696Z,98749.59
2022-12-01T02:31:52.074Z,98746.44
2022-12-01T02:34:25.747Z,98745.63
2022-12-01T02:37:15.662Z,98749.75
2022-12-01T02:39:52.807Z,98741.31
2022-12-01T02:42:54.199Z,98739.66
2022-12-01T02:45:33.725Z,98736.56
2022-12-01T02:48:02.583Z,98742.50
2022-12-01T02:50:32.442Z,98742.56
2022-12-01T02:53:01.226Z,98743.53
2022-12-01T02:55:27.589Z,98738.09
2022-12-01T02:57:53.952Z,98736.22
2022-12-01T03:00:20.623Z,98729.69
2022-12-01T03:02:58.855Z,98723.88
2022-12-01T03:06:08.458Z,98721.94
2022-12-01T03:08:55.605Z,98729.03
2022-12-01T03:11:34.033Z,98727.38
2022-12-01T03:14:24.855Z,98731.84
2022-12-01T03:16:53.458Z,98732.66
2022-12-01T03:19:41.696Z,98730.50
2022-12-01T03:22:35.425Z,98721.25
2022-12-01T03:25:04.054Z,98730.84
2022-12-01T03:27:35.297Z,98727.81
2022-12-01T03:30:03.699Z,98719.59
2022-12-01T03:32:38.438Z,98723.03
2022-12-01T03:35:12.613Z,98710.34
2022-12-01T03:37:49.402Z,98718.09
2022-12-01T03:40:19.858Z,98717.44
2022-12-01T03:42:47.879Z,98719.72
2022-12-01T03:45:19.860Z,98723.03
2022-12-01T03:47:46.524Z,98719.47
2022-12-01T03:50:14.363Z,98722.13
2022-12-01T03:53:11.046Z,98722.13
2022-12-01T03:55:42.404Z,98722.59
2022-12-01T03:58:21.824Z,98721.78
2022-12-01T04:00:51.546Z,98726.88
2022-12-01T04:03:20.524Z,98722.91
2022-12-01T04:05:46.884Z,98719.44
2022-12-01T04:08:13.295Z,98722.59
2022-12-01T04:10:39.746Z,98721.28
2022-12-01T04:13:06.270Z,98721.44
2022-12-01T04:15:32.595Z,98717.16
2022-12-01T04:17:59.074Z,98725.34
2022-12-01T04:20:25.449Z,98724.56
2022-12-01T04:22:51.870Z,98712.53
2022-12-01T04:25:18.309Z,98716.69
2022-12-01T04:27:44.788Z,98713.88
2022-12-01T04:30:12.407Z,98714.38
2022-12-01T04:32:40.948Z,98709.44
2022-12-01T04:35:09.372Z,98707.94
2022-12-01T04:37:36.149Z,98721.44
2022-12-01T04:40:02.670Z,98716.34
2022-12-01T04:42:29.031Z,98711.69
2022-12-01T04:44:55.409Z,98717.78
2022-12-01T04:47:21.796Z,98710.19
2022-12-01T04:49:49.290Z,98713.81
2022-12-01T04:52:16.026Z,98712.97
2022-12-01T04:54:42.443Z,98713.13
2022-12-01T04:57:08.808Z,98713.81
2022-12-01T04:59:35.243Z,98721.25
2022-12-01T05:02:02.737Z,98722.59
2022-12-01T05:04:31.120Z,98719.44
2022-12-01T05:06:57.551Z,98722.69
2022-12-01T05:09:23.886Z,98722.38
2022-12-01T05:11:50.217Z,98723.53
2022-12-01T05:14:16.650Z,98723.53
2022-12-01T05:16:43.020Z,98718.56
2022-12-01T05:19:28.233Z,98719.38
2022-12-01T05:21:54.624Z,98718.22
2022-12-01T05:24:22.240Z,98719.06
2022-12-01T05:26:48.828Z,98714.94
2022-12-01T05:29:15.320Z,98719.88
2022-12-01T05:31:41.969Z,98720.84
2022-12-01T05:34:09.137Z,98697.94
2022-12-01T05:36:36.353Z,98697.28
2022-12-01T05:39:03.419Z,98707.28
2022-12-01T05:41:29.766Z,98700.00
2022-12-01T05:43:56.201Z,98709.75
2022-12-01T05:46:22.594Z,98710.28
2022-12-01T05:48:49.109Z,98712.94
2022-12-01T05:51:16.959Z,98706.50
2022-12-01T05:53:43.614Z,98706.84
2022-12-01T05:56:10.319Z,98705.19
2022-12-01T05:58:36.865Z,98701.84
2022-12-01T06:01:03.620Z,98699.53
2022-12-01T06:03:29.966Z,98712.94
2022-12-01T06:05:56.393Z,98706.44
2022-12-01T06:08:23.019Z,98708.00
2022-12-01T06:10:49.446Z,98707.00
2022-12-01T06:13:15.880Z,98707.84
2022-12-01T06:15:42.335Z,98710.81
2022-12-01T06:18:08.852Z,98704.84
2022-12-01T06:20:35.270Z,98709.97
2022-12-01T06:23:01.652Z,98709.66
2022-12-01T06:25:27.977Z,98709.50
2022-12-01T06:27:58.374Z,98713.59
2022-12-01T06:30:25.492Z,98718.88
2022-12-01T06:32:51.842Z,98715.72
2022-12-01T06:35:18.338Z,98716.22
2022-12-01T06:37:44.815Z,98723.25
2022-12-01T06:40:12.209Z,98732.00
2022-12-01T06:42:38.693Z,98723.56
2022-12-01T06:45:05.487Z,98729.19
2022-12-01T06:47:31.848Z,98732.47
2022-12-01T06:49:58.184Z,98735.75
2022-12-01T06:52:24.555Z,98729.34
2022-12-01T06:54:51.068Z,98731.66
2022-12-01T06:57:17.778Z,98726.56
2022-12-01T06:59:44.336Z,98727.22
2022-12-01T07:02:11.861Z,98725.28
2022-12-01T07:04:38.298Z,98728.44
2022-12-01T07:07:05.391Z,98737.31
2022-12-01T07:09:31.818Z,98730.41
2022-12-01T07:11:58.201Z,98732.06
2022-12-01T07:14:26.610Z,98736.50
2022-12-01T07:16:53.479Z,98736.28
2022-12-01T07:19:20.356Z,98740.88
2022-12-01T07:21:46.788Z,98738.91
2022-12-01T07:24:13.294Z,98738.63
2022-12-01T07:26:40.996Z,98741.94
2022-12-01T07:29:08.690Z,98742.44
2022-12-01T07:31:35.849Z,98741.97
2022-12-01T07:34:02.276Z,98752.06
2022-12-01T07:36:28.666Z,98750.63
2022-12-01T07:38:55.062Z,98749.78
2022-12-01T07:41:21.562Z,98748.81
2022-12-01T07:43:48.257Z,98750.47
2022-12-01T07:46:22.291Z,98748.00
2022-12-01T07:48:49.598Z,98751.00
2022-12-01T07:51:16.809Z,98758.78
2022-12-01T07:53:49.067Z,98750.88
2022-12-01T07:56:16.250Z,98753.53
2022-12-01T07:58:42.845Z,98748.91
2022-12-01T08:01:14.683Z,98752.19
2022-12-01T08:03:42.426Z,98751.53
2022-12-01T08:06:09.989Z,98755.19
2022-12-01T08:08:37.958Z,98748.75
2022-12-01T08:11:08.017Z,98756.50
2022-12-01T08:13:34.744Z,98748.59
2022-12-01T08:16:05.750Z,98749.75
2022-12-01T08:18:35.534Z,98755.41
2022-12-01T08:21:02.462Z,98746.00
2022-12-01T08:23:28.843Z,98751.63
2022-12-01T08:25:55.538Z,98745.03
2022-12-01T08:28:22.066Z,98749.50
2022-12-01T08:30:48.636Z,98754.44
2022-12-01T08:33:15.193Z,98744.06
2022-12-01T08:35:41.581Z,98752.31
2022-12-01T08:38:09.052Z,98755.63
2022-12-01T08:40:35.457Z,98749.19
2022-12-01T08:43:01.912Z,98755.28
2022-12-01T08:45:28.346Z,98753.44
2022-12-01T08:47:58.875Z,98756.28
2022-12-01T08:50:26.756Z,98747.53
2022-12-01T08:52:53.184Z,98748.34
2022-12-01T08:55:20.581Z,98755.63
2022-12-01T08:57:46.939Z,98759.41
2022-12-01T09:00:14.182Z,98757.09
2022-12-01T09:02:40.631Z,98761.56
2022-12-01T09:05:07.400Z,98762.75
2022-12-01T09:07:33.795Z,98757.94
2022-12-01T09:10:00.164Z,98761.75
2022-12-01T09:12:28.964Z,98758.94
2022-12-01T09:14:55.371Z,98766.88
2022-12-01T09:17:21.738Z,98764.06
2022-12-01T09:19:48.603Z,98765.22
2022-12-01T09:22:15.299Z,98766.03
2022-12-01T09:24:41.628Z,98764.53
2022-12-01T09:27:09.299Z,98767.69
2022-12-01T09:29:35.886Z,98767.34
2022-12-01T09:32:02.269Z,98769.13
2022-12-01T09:34:29.278Z,98767.78
2022-12-01T09:36:57.566Z,98773.69
2022-12-01T09:39:24.694Z,98764.59
2022-12-01T09:42:06.126Z,98765.06
2022-12-01T09:44:53.181Z,98756.66
2022-12-01T09:47:33.821Z,98760.44
2022-12-01T09:50:10.621Z,98756.34
2022-12-01T09:52:59.802Z,98760.16
2022-12-01T09:55:28.537Z,98748.94
2022-12-01T09:57:59.104Z,98746.63
2022-12-01T10:00:29.979Z,98746.31
2022-12-01T10:03:00.913Z,98742.03
2022-12-01T10:05:36.570Z,98742.84
2022-12-01T10:08:08.136Z,98734.38
2022-12-01T10:10:39.583Z,98734.00
2022-12-01T10:13:20.424Z,98728.19
2022-12-01T10:16:08.389Z,98723.88
2022-12-01T10:19:03.523Z,98725.03
2022-12-01T10:21:44.315Z,98725.63
2022-12-01T10:24:16.531Z,98720.16
2022-12-01T10:27:14.546Z,98719.44
2022-12-01T10:29:59.619Z,98712.25
2022-12-01T10:32:54.160Z,98704.66
2022-12-01T10:35:24.284Z,98703.19
2022-12-01T10:38:01.457Z,98701.63
2022-12-01T10:40:28.373Z,98700.63
2022-12-01T10:42:55.622Z,98692.50
2022-12-01T10:45:28.009Z,98696.63
2022-12-01T10:48:20.649Z,98696.28
2022-12-01T10:50:55.398Z,98695.63
2022-12-01T10:53:33.654Z,98695.16
2022-12-01T10:56:12.507Z,98698.97
2022-12-01T10:58:44.195Z,98693.16
2022-12-01T11:01:27.504Z,98692.16
2022-12-01T11:04:02.263Z,98693.84
2022-12-01T11:06:30.822Z,98693.16
2022-12-01T11:09:00.881Z,98691.91
2022-12-01T11:11:34.256Z,98688.91
2022-12-01T11:14:04.771Z,98694.38
2022-12-01T11:16:36.225Z,98689.72
2022-12-01T11:19:26.819Z,98689.06
2022-12-01T11:21:58.649Z,98679.75
2022-12-01T11:24:51.628Z,98681.16
2022-12-01T11:27:26.327Z,98676.84
2022-12-01T11:29:56.905Z,98669.56
2022-12-01T11:32:29.897Z,98674.00
2022-12-01T11:35:05.625Z,98670.16
2022-12-01T11:38:27.579Z,98678.78
2022-12-01T11:40:53.613Z,98672.31
2022-12-01T11:43:25.252Z,98668.75
2022-12-01T11:45:53.113Z,98672.81
2022-12-01T11:48:26.117Z,98668.06
2022-12-01T11:51:16.097Z,98660.75
2022-12-01T11:53:43.548Z,98665.97
2022-12-01T11:56:12.649Z,98666.69
2022-12-01T11:58:39.234Z,98668.41
2022-12-01T12:04:21.562Z,98668.41
2022-12-01T12:07:14.424Z,98663.00
2022-12-01T12:10:05.215Z,98660.06
2022-12-01T12:13:05.631Z,98659.31
2022-12-01T12:15:56.666Z,98655.28
2022-12-01T12:18:38.002Z,98658.13
2022-12-01T12:21:30.147Z,98650.34
2022-12-01T12:24:17.721Z,98647.56
2022-12-01T12:27:01.606Z,98644.03
2022-12-01T12:29:52.743Z,98643.38
2022-12-01T12:32:47.587Z,98633.03
2022-12-01T12:35:27.811Z,98632.84
2022-12-01T12:38:32.494Z,98628.97
2022-12-01T12:41:09.073Z,98627.53
2022-12-01T12:44:00.287Z,98623.19
2022-12-01T12:46:54.361Z,98625.69
2022-12-01T12:49:37.428Z,98629.53
2022-12-01T12:52:15.982Z,98617.53
2022-12-01T12:54:50.452Z,98624.63
2022-12-01T12:57:35.177Z,98620.38
2022-12-01T13:00:05.274Z,98618.53
2022-12-01T13:02:38.926Z,98634.13
2022-12-01T13:05:05.504Z,98629.91
2022-12-01T13:07:42.251Z,98627.69
2022-12-01T13:10:25.338Z,98631.81
2022-12-01T13:12:58.814Z,98626.13
2022-12-01T13:15:27.220Z,98620.94
2022-12-01T13:18:03.525Z,98611.59
2022-12-01T13:20:33.163Z,98621.66
2022-12-01T13:23:02.056Z,98613.97
2022-12-01T13:25:39.433Z,98611.69
2022-12-01T13:28:18.916Z,98616.66
2022-12-01T13:31:03.988Z,98607.97
2022-12-01T13:33:31.968Z,98617.81
2022-12-01T13:36:30.020Z,98609.16
2022-12-01T13:38:58.102Z,98610.63
2022-12-01T13:41:38.503Z,98614.63
2022-12-01T13:44:20.029Z,98601.47
2022-12-01T13:46:46.663Z,98610.34
2022-12-01T13:49:47.068Z,98610.25
2022-12-01T13:52:22.837Z,98610.63
2022-12-01T13:55:25.285Z,98600.03
2022-12-01T13:57:57.397Z,98603.19
2022-12-01T14:00:25.988Z,98602.03
2022-12-01T14:03:17.348Z,98598.38
2022-12-01T14:05:53.068Z,98605.53
2022-12-01T14:08:44.162Z,98601.19
2022-12-01T14:11:23.226Z,98602.94
2022-12-01T14:14:25.957Z,98598.66
2022-12-01T14:17:02.532Z,98593.91
2022-12-01T14:19:36.266Z,98597.09
2022-12-01T14:22:05.281Z,98599.75
2022-12-01T14:24:35.553Z,98599.31
2022-12-01T14:27:03.642Z,98604.41
2022-12-01T14:29:33.240Z,98606.88
2022-12-01T14:32:04.184Z,98601.03
2022-12-01T14:34:34.166Z,98605.78
2022-12-01T14:37:08.337Z,98601.75
2022-12-01T14:39:48.116Z,98600.94
2022-12-01T14:42:41.032Z,98600.03
2022-12-01T14:45:11.644Z,98599.47
2022-12-01T14:47:47.555Z,98594.44
2022-12-01T14:50:24.842Z,98598.00
2022-12-01T14:53:31.869Z,98596.75
2022-12-01T14:56:10.631Z,98589.69
2022-12-01T14:58:37.077Z,98592.78
2022-12-01T15:01:12.667Z,98598.09
2022-12-01T15:03:43.677Z,98602.75
2022-12-01T15:06:15.494Z,98603.56
2022-12-01T15:08:53.372Z,98600.47
2022-12-01T15:11:30.191Z,98598.00
2022-12-01T15:13:57.751Z,98599.13
2022-12-01T15:16:28.564Z,98604.59
2022-12-01T15:18:55.293Z,98599.75
2022-12-01T15:21:28.151Z,98607.41
2022-12-01T15:24:03.287Z,98594.91
2022-12-01T15:26:45.096Z,98593.91
2022-12-01T15:29:19.123Z,98593.25
2022-12-01T15:31:48.397Z,98590.66
2022-12-01T15:34:23.231Z,98596.50
2022-12-01T15:36:51.277Z,98602.91
2022-12-01T15:39:21.534Z,98601.44
2022-12-01T15:41:53.696Z,98609.22
2022-12-01T15:44:32.930Z,98612.03
2022-12-01T15:46:59.538Z,98609.22
2022-12-01T15:49:32.851Z,98603.56
2022-12-01T15:52:10.038Z,98607.19
2022-12-01T15:54:37.413Z,98610.25
2022-12-01T15:57:05.397Z,98601.22
2022-12-01T15:59:39.947Z,98614.09
2022-12-01T16:02:20.379Z,98609.44
2022-12-01T16:04:48.818Z,98610.72
2022-12-01T16:07:15.612Z,98616.53
2022-12-01T16:09:58.524Z,98607.75
2022-12-01T16:12:26.914Z,98617.34
2022-12-01T16:15:08.327Z,98612.03
2022-12-01T16:17:47.544Z,98611.72
2022-12-01T16:20:35.529Z,98606.16
2022-12-01T16:23:20.028Z,98612.09
2022-12-01T16:25:48.551Z,98603.97
2022-12-01T16:28:42.203Z,98610.09
2022-12-01T16:31:19.490Z,98603.50
2022-12-01T16:33:46.093Z,98599.84
2022-12-01T16:36:14.455Z,98605.97
2022-12-01T16:38:41.107Z,98605.97
2022-12-01T16:41:26.693Z,98608.63
2022-12-01T16:44:20.204Z,98605.06
2022-12-01T16:46:40.858Z,98604.31
2022-12-01T16:49:07.971Z,98598.28
2022-12-01T16:51:54.774Z,98609.53
2022-12-01T16:54:22.830Z,98605.50
2022-12-01T16:56:49.406Z,98604.50
2022-12-01T16:59:15.819Z,98604.03
2022-12-01T17:01:42.186Z,98615.19
2022-12-01T17:04:08.612Z,98613.41
2022-12-01T17:06:36.188Z,98613.94
2022-12-01T17:09:02.538Z,98621.25
2022-12-01T17:11:28.898Z,98617.13
2022-12-01T17:13:55.214Z,98619.94
2022-12-01T17:16:21.693Z,98616.13
2022-12-01T17:18:48.143Z,98617.66
2022-12-01T17:21:14.498Z,98623.97
2022-12-01T17:23:40.921Z,98615.19
2022-12-01T17:26:15.827Z,98617.84
2022-12-01T17:28:42.513Z,98610.44
2022-12-01T17:31:09.478Z,98612.19
2022-12-01T17:33:36.276Z,98615.13
2022-12-01T17:36:06.284Z,98619.88
2022-12-01T17:38:37.741Z,98618.25
2022-12-01T17:41:07.024Z,98620.13
2022-12-01T17:43:38.087Z,98615.84
2022-12-01T17:46:06.808Z,98616.66
2022-12-01T17:48:44.874Z,98623.66
2022-12-01T17:51:12.886Z,98624.00
2022-12-01T17:53:40.230Z,98621.22
2022-12-01T17:56:12.093Z,98629.78
2022-12-01T17:58:39.236Z,98631.13
2022-12-01T18:01:06.470Z,98628.63
2022-12-01T18:03:32.810Z,98633.25
2022-12-01T18:06:01.275Z,98624.50
2022-12-01T18:08:29.730Z,98630.16
2022-12-01T18:11:03.013Z,98633.44
2022-12-01T18:13:29.566Z,98626.69
2022-12-01T18:15:55.987Z,98631.84
2022-12-01T18:18:22.391Z,98638.03
2022-12-01T18:20:48.882Z,98636.34
2022-12-01T18:23:15.231Z,98634.94
2022-12-01T18:25:41.607Z,98640.72
2022-12-01T18:28:10.876Z,98634.75
2022-12-01T18:30:38.628Z,98642.41
2022-12-01T18:33:06.498Z,98635.00
2022-12-01T18:35:32.936Z,98639.13
2022-12-01T18:37:59.282Z,98634.66
2022-12-01T18:40:25.600Z,98637.47
2022-12-01T18:42:52.047Z,98645.75
2022-12-01T18:45:21.225Z,98647.22
2022-12-01T18:47:48.040Z,98640.94
2022-12-01T18:50:14.478Z,98640.28
2022-12-01T18:52:40.842Z,98638.47
2022-12-01T18:55:07.590Z,98636.47
2022-12-01T18:57:33.991Z,98633.00
2022-12-01T19:00:00.364Z,98636.28
2022-12-01T19:02:26.922Z,98631.16
2022-12-01T19:04:53.448Z,98624.53
2022-12-01T19:07:20.703Z,98626.34
2022-12-01T19:09:49.540Z,98631.28
2022-12-01T19:12:16.178Z,98637.94
2022-12-01T19:14:42.501Z,98634.47
2022-12-01T19:17:08.882Z,98631.16
2022-12-01T19:19:37.577Z,98629.19
2022-12-01T19:22:04.154Z,98629.53
2022-12-01T19:24:30.543Z,98633.53
2022-12-01T19:26:56.892Z,98633.34
2022-12-01T19:29:23.337Z,98627.69
2022-12-01T19:31:49.883Z,98623.72
2022-12-01T19:34:16.321Z,98628.19
2022-12-01T19:36:42.709Z,98630.00
2022-12-01T19:39:09.183Z,98622.06
2022-12-01T19:41:35.577Z,98625.53
2022-12-01T19:44:02.131Z,98630.34
2022-12-01T19:46:28.761Z,98628.88
2022-12-01T19:48:57.842Z,98627.06
2022-12-01T19:51:26.924Z,98629.88
2022-12-01T19:53:54.194Z,98630.69
2022-12-01T19:56:21.833Z,98622.75
2022-12-01T19:58:48.118Z,98624.59
2022-12-01T20:01:16.539Z,98633.53
2022-12-01T20:03:46.132Z,98628.88
2022-12-01T20:06:20.987Z,98636.28
2022-12-01T20:08:47.885Z,98635.13
2022-12-01T20:11:14.958Z,98642.94
2022-12-01T20:13:44.168Z,98637.31
2022-12-01T20:16:20.576Z,98632.00
2022-12-01T20:18:47.658Z,98638.31
2022-12-01T20:21:17.296Z,98642.28
2022-12-01T20:23:45.577Z,98640.81
2022-12-01T20:26:12.344Z,98637.16
2022-12-01T20:28:40.301Z,98638.00
2022-12-01T20:31:12.909Z,98640.81
2022-12-01T20:33:40.190Z,98635.66
2022-12-01T20:36:07.885Z,98637.66
2022-12-01T20:38:34.997Z,98640.13
2022-12-01T20:41:01.361Z,98629.72
2022-12-01T20:43:28.493Z,98630.72
2022-12-01T20:45:55.144Z,98630.91
2022-12-01T20:48:21.617Z,98627.91
2022-12-01T20:50:48.132Z,98632.53
2022-12-01T20:53:14.543Z,98627.25
2022-12-01T20:55:40.985Z,98630.72
2022-12-01T20:58:08.772Z,98636.47
2022-12-01T21:00:40.560Z,98626.25
2022-12-01T21:03:07.014Z,98633.38
2022-12-01T21:05:33.633Z,98633.19
2022-12-01T21:08:01.400Z,98635.66
2022-12-01T21:10:28.605Z,98629.38
2022-12-01T21:13:18.429Z,98621.94
2022-12-01T21:16:00.019Z,98622.59
2022-12-01T21:18:38.731Z,98633.16
2022-12-01T21:21:20.118Z,98620.94
2022-12-01T21:23:47.049Z,98622.75
2022-12-01T21:26:17.266Z,98624.22
2022-12-01T21:28:44.806Z,98624.59
2022-12-01T21:31:16.521Z,98618.47
2022-12-01T21:33:47.754Z,98617.00
2022-12-01T21:36:19.697Z,98620.28
2022-12-01T21:38:48.189Z,98621.59
2022-12-01T21:41:25.778Z,98622.59
2022-12-01T21:43:55.404Z,98617.66
2022-12-01T21:46:21.885Z,98618.31
2022-12-01T21:48:50.649Z,98617.50
2022-12-01T21:51:25.413Z,98617.03
2022-12-01T21:53:53.643Z,98616.53
2022-12-01T21:56:28.999Z,98609.78
2022-12-01T21:58:58.528Z,98609.78
2022-12-01T22:01:31.112Z,98607.31
2022-12-01T22:04:02.469Z,98612.13
2022-12-01T22:06:40.501Z,98614.94
2022-12-01T22:09:27.028Z,98612.59
2022-12-01T22:11:54.798Z,98614.41
2022-12-01T22:14:22.633Z,98607.31
2022-12-01T22:16:58.189Z,98603.16
2022-12-01T22:19:30.628Z,98602.78
2022-12-01T22:22:15.712Z,98610.72
2022-12-01T22:24:59.360Z,98605.63
2022-12-01T22:27:28.497Z,98612.91
2022-12-01T22:30:07.265Z,98604.31
2022-12-01T22:32:40.039Z,98605.97
2022-12-01T22:35:31.663Z,98603.84
2022-12-01T22:38:05.568Z,98602.19
2022-12-01T22:40:51.391Z,98595.91
2022-12-01T22:43:17.860Z,98598.91
2022-12-01T22:45:49.332Z,98598.25
2022-12-01T22:48:29.642Z,98594.44
2022-12-01T22:51:18.828Z,98588.16
2022-12-01T22:53:46.089Z,98592.97
2022-12-01T22:56:35.427Z,98592.13
2022-12-01T22:59:12.846Z,98594.78
2022-12-01T23:01:46.589Z,98597.59
2022-12-01T23:04:21.818Z,98593.63
2022-12-01T23:06:52.933Z,98593.63
2022-12-01T23:09:23.211Z,98594.97
2022-12-01T23:11:55.169Z,98595.28
2022-12-01T23:14:23.361Z,98582.56
2022-12-01T23:16:56.359Z,98583.56
2022-12-01T23:19:22.698Z,98588.84
2022-12-01T23:21:52.252Z,98577.41
2022-12-01T23:24:18.704Z,98579.22
2022-12-01T23:26:46.494Z,98578.91
2022-12-01T23:29:12.907Z,98576.44
2022-12-01T23:31:39.629Z,98570.81
2022-12-01T23:34:15.350Z,98584.56
2022-12-01T23:36:42.937Z,98571.22
2022-12-01T23:39:14.723Z,98572.34
2022-12-01T23:41:44.509Z,98570.69
2022-12-01T23:44:40.038Z,98569.88
2022-12-01T23:47:18.505Z,98570.56
2022-12-01T23:49:46.416Z,98566.28
2022-12-01T23:52:18.591Z,98564.81
2022-12-01T23:54:45.631Z,98558.88
2022-12-01T23:57:21.637Z,98559.53
2022-12-01T23:59:54.986Z,98553.06
